Lena, Louisiana
Current Conditions -  °F | °C
As of 11:53 AM on Friday 21 Nov 2014 (Local Time) from KAEX Reporting Station
Overcast Overcast  
Wind Chill: 67°   Ceiling: 8000
Heat Index: 67°   Visibility: 10mi
Dew Point: 46°   Wind: 20mph
Humidity: 47%   Direction: 130°SE
Pressure: 30.22"   Gusts: NA
Location:  31.46°N, 92.77°W
Report Text: KAEX 211753Z 13017KT 10SM OVC080 19/08 A3022 RMK AO2 SLP236 60000 T01940078 10194 20117 58010
Loading
Personal Weather Stations






























Interactive Weather Map New forecast layout! Learn more

10-Day Weather Forecast

Advertisements
Track Severe Weather on mobile